Time;durP1;ratioP1;P1;durP2;ratioP2;P2;SDS_P1;SDS_P2;PMS_P1;PMS_P2;Temp;Humidity;BMP_temperature;BMP_pressure;BME280_temperature;BME280_humidity;BME280_pressure;Samples;Min_cycle;Max_cycle;Signal;HPM_P1;HPM_P2
2023/09/08 00:02:07;;;;;;;7.32;5.40;;;19.40;99.90;;;;;;6118114;23;20041;-64
2023/09/08 00:04:34;;;;;;;5.70;5.20;;;19.30;99.90;;;;;;6092762;23;20014;-64
2023/09/08 00:07:00;;;;;;;7.72;5.78;;;19.30;99.90;;;;;;6117551;23;20751;-64
2023/09/08 00:09:26;;;;;;;9.60;5.28;;;19.30;99.90;;;;;;6117011;23;20075;-64
2023/09/08 00:11:54;;;;;;;8.63;4.70;;;19.20;99.90;;;;;;6092315;23;20026;-64
2023/09/08 00:14:20;;;;;;;6.40;5.85;;;19.20;99.90;;;;;;6118661;23;20033;-64
2023/09/08 00:16:45;;;;;;;8.57;5.22;;;19.20;99.90;;;;;;6092757;23;20025;-64
2023/09/08 00:19:11;;;;;;;8.15;5.20;;;19.20;99.90;;;;;;6118544;23;20014;-64
2023/09/08 00:21:37;;;;;;;5.93;5.25;;;19.10;99.90;;;;;;6092730;23;20026;-64
2023/09/08 00:24:04;;;;;;;5.60;5.10;;;19.00;99.90;;;;;;6093348;23;20014;-64
2023/09/08 00:26:29;;;;;;;6.95;4.93;;;19.00;99.90;;;;;;6119293;23;20048;-64
2023/09/08 00:28:55;;;;;;;5.40;4.90;;;18.90;99.90;;;;;;6118122;23;20017;-64
2023/09/08 00:31:21;;;;;;;6.70;4.60;;;18.80;99.90;;;;;;6118417;23;20025;-64
2023/09/08 00:33:46;;;;;;;5.63;5.13;;;18.80;99.90;;;;;;6119405;23;20018;-64
2023/09/08 00:36:12;;;;;;;6.32;5.75;;;18.70;99.90;;;;;;6092680;23;20017;-64
2023/09/08 00:38:38;;;;;;;9.43;5.13;;;18.60;99.90;;;;;;6118690;23;20010;-64
2023/09/08 00:41:05;;;;;;;6.03;5.47;;;18.60;99.90;;;;;;6091453;23;20022;-64
2023/09/08 00:43:30;;;;;;;7.32;5.10;;;18.50;99.90;;;;;;6093131;23;20540;-64
2023/09/08 00:45:58;;;;;;;9.45;5.97;;;18.50;99.90;;;;;;6119595;23;20041;-64
2023/09/08 00:48:24;;;;;;;5.65;5.15;;;18.40;99.90;;;;;;6093374;23;20022;-64
2023/09/08 00:50:50;;;;;;;5.25;4.85;;;18.40;99.90;;;;;;6091239;23;20017;-64
2023/09/08 00:53:16;;;;;;;6.47;4.90;;;18.30;99.90;;;;;;6092704;23;20018;-64
2023/09/08 00:55:42;;;;;;;5.30;4.80;;;18.30;99.90;;;;;;6120128;23;20024;-64
2023/09/08 00:58:08;;;;;;;7.22;4.60;;;18.30;99.90;;;;;;6093628;23;20085;-64
2023/09/08 01:00:33;;;;;;;8.73;5.18;;;18.20;99.90;;;;;;6118424;23;20080;-64
2023/09/08 01:02:59;;;;;;;5.95;5.03;;;18.10;99.90;;;;;;6119007;23;20072;-64
2023/09/08 01:05:25;;;;;;;8.35;5.90;;;18.10;99.90;;;;;;6093354;23;20084;-64
2023/09/08 01:07:51;;;;;;;6.68;6.07;;;18.00;99.90;;;;;;6120246;23;20355;-64
2023/09/08 01:10:17;;;;;;;6.47;5.95;;;18.00;99.90;;;;;;6118818;23;20107;-64
2023/09/08 01:12:43;;;;;;;7.88;5.45;;;18.00;99.90;;;;;;6093570;23;20022;-64
2023/09/08 01:15:08;;;;;;;6.43;5.32;;;18.00;99.90;;;;;;6093282;23;20107;-64
2023/09/08 01:17:34;;;;;;;5.57;5.10;;;18.00;99.90;;;;;;6092691;23;20010;-64
2023/09/08 01:20:21;;;;;;;6.70;5.10;;;18.00;99.90;;;;;;6091966;23;20923;-64
2023/09/08 01:23:12;;;;;;;6.70;5.90;;;18.00;99.90;;;;;;6117858;23;20018;-64
2023/09/08 01:25:52;;;;;;;5.97;5.38;;;17.90;99.90;;;;;;6118742;23;20013;-64
2023/09/08 01:28:20;;;;;;;6.28;5.68;;;17.90;99.90;;;;;;6093044;23;20026;-64
2023/09/08 01:30:46;;;;;;;6.90;5.13;;;18.00;99.90;;;;;;6092700;23;20064;-64
2023/09/08 01:33:12;;;;;;;6.53;6.03;;;18.00;99.90;;;;;;6092064;23;20014;-64
2023/09/08 01:35:38;;;;;;;6.10;5.25;;;18.00;99.90;;;;;;6091185;23;20089;-64
2023/09/08 01:38:05;;;;;;;6.07;5.57;;;18.00;99.90;;;;;;6119005;23;20517;-64
2023/09/08 01:40:30;;;;;;;6.38;5.78;;;17.90;99.90;;;;;;6092976;23;20018;-64
2023/09/08 01:42:56;;;;;;;8.48;6.05;;;17.90;99.90;;;;;;6118957;23;20516;-64
2023/09/08 01:45:21;;;;;;;6.40;5.53;;;17.90;99.90;;;;;;6118686;23;20368;-64
2023/09/08 01:47:47;;;;;;;7.07;6.38;;;17.80;99.90;;;;;;6119757;23;20018;-64
2023/09/08 01:50:12;;;;;;;6.40;5.82;;;17.80;99.90;;;;;;6118250;23;20022;-64
2023/09/08 01:52:38;;;;;;;6.93;6.22;;;17.80;99.90;;;;;;6093059;23;20018;-64
2023/09/08 01:55:04;;;;;;;6.95;6.30;;;17.70;99.90;;;;;;6093313;23;20018;-64
2023/09/08 01:57:30;;;;;;;7.65;5.47;;;17.70;99.90;;;;;;6119169;23;20384;-64
2023/09/08 01:59:55;;;;;;;10.27;6.13;;;17.60;99.90;;;;;;6092062;23;20018;-64
2023/09/08 02:02:21;;;;;;;6.45;5.82;;;17.60;99.90;;;;;;6119189;23;20061;-64
2023/09/08 02:04:47;;;;;;;7.03;6.00;;;17.60;99.90;;;;;;6118641;23;20020;-64
2023/09/08 02:07:13;;;;;;;6.55;6.00;;;17.50;99.90;;;;;;6093001;23;20103;-64
2023/09/08 02:09:38;;;;;;;7.63;6.93;;;17.50;99.90;;;;;;6091573;23;20022;-64
2023/09/08 02:12:04;;;;;;;7.65;6.43;;;17.40;99.90;;;;;;6093003;23;20014;-64
2023/09/08 02:14:30;;;;;;;8.23;6.50;;;17.30;99.90;;;;;;6117070;23;20457;-64
2023/09/08 02:16:56;;;;;;;6.70;5.97;;;17.30;99.90;;;;;;6118683;23;20014;-64
2023/09/08 02:19:22;;;;;;;8.27;5.97;;;17.30;99.90;;;;;;6118557;23;20006;-64
2023/09/08 02:21:48;;;;;;;8.73;6.75;;;17.30;99.90;;;;;;6119126;23;20459;-64
2023/09/08 02:24:13;;;;;;;9.32;7.18;;;17.20;99.90;;;;;;6118806;23;20018;-64
2023/09/08 02:26:41;;;;;;;7.85;7.05;;;17.20;99.90;;;;;;6117912;23;20014;-64
2023/09/08 02:29:07;;;;;;;6.65;6.05;;;17.10;99.90;;;;;;6117568;23;20025;-64
2023/09/08 02:31:33;;;;;;;7.95;7.22;;;17.20;99.90;;;;;;6092689;23;20010;-64
2023/09/08 02:33:59;;;;;;;8.77;7.80;;;17.10;99.90;;;;;;6092736;23;20037;-64
2023/09/08 02:36:27;;;;;;;7.95;7.20;;;17.10;99.90;;;;;;6117865;23;20461;-64
2023/09/08 02:38:53;;;;;;;7.35;6.65;;;17.10;99.90;;;;;;6091680;23;20841;-64
2023/09/08 02:41:20;;;;;;;7.50;6.82;;;17.00;99.90;;;;;;6068815;23;20060;-64
2023/09/08 02:43:45;;;;;;;7.72;6.97;;;17.20;99.90;;;;;;6117385;23;20463;-64
2023/09/08 02:46:11;;;;;;;6.97;6.43;;;17.10;99.90;;;;;;6117880;23;20018;-64
2023/09/08 02:48:37;;;;;;;7.60;6.78;;;17.10;99.90;;;;;;6119110;23;20067;-64
2023/09/08 02:51:03;;;;;;;7.50;6.72;;;17.10;99.90;;;;;;6118831;23;20010;-64
2023/09/08 02:53:28;;;;;;;9.07;6.55;;;17.20;99.90;;;;;;6092223;23;20018;-64
2023/09/08 02:55:55;;;;;;;7.38;6.78;;;17.10;99.90;;;;;;6117691;23;20018;-64
2023/09/08 02:58:21;;;;;;;7.03;6.32;;;17.10;99.90;;;;;;6092829;23;20014;-64
2023/09/08 03:00:46;;;;;;;7.90;7.20;;;17.10;99.90;;;;;;6091418;23;20459;-64
2023/09/08 03:03:12;;;;;;;7.32;6.35;;;17.10;99.90;;;;;;6092085;23;20017;-64
2023/09/08 03:05:37;;;;;;;7.65;7.03;;;17.10;99.90;;;;;;6092785;23;20022;-64
2023/09/08 03:08:03;;;;;;;7.47;6.78;;;17.00;99.90;;;;;;6092318;23;20026;-64
2023/09/08 03:10:29;;;;;;;6.82;6.32;;;17.00;99.90;;;;;;6119468;23;20098;-64
2023/09/08 03:12:54;;;;;;;6.90;6.20;;;17.00;99.90;;;;;;6119040;23;20352;-64
2023/09/08 03:15:20;;;;;;;8.52;6.72;;;16.90;99.90;;;;;;6117596;23;20021;-64
2023/09/08 03:17:46;;;;;;;6.95;6.43;;;16.90;99.90;;;;;;6118489;23;20093;-64
2023/09/08 03:20:13;;;;;;;7.85;7.15;;;16.90;99.90;;;;;;6119119;23;20095;-64
2023/09/08 03:22:39;;;;;;;8.75;6.68;;;16.90;99.90;;;;;;6118953;23;20303;-64
2023/09/08 03:25:05;;;;;;;7.53;6.88;;;16.90;99.90;;;;;;6091824;23;20025;-64
2023/09/08 03:27:31;;;;;;;7.63;7.00;;;16.90;99.90;;;;;;6093273;23;20018;-64
2023/09/08 03:29:56;;;;;;;7.47;6.88;;;16.90;99.90;;;;;;6118141;23;20021;-64
2023/09/08 03:32:22;;;;;;;7.55;6.72;;;16.90;99.90;;;;;;6090424;23;20025;-64
2023/09/08 03:34:48;;;;;;;7.03;6.43;;;16.90;99.90;;;;;;6091080;23;20021;-64
2023/09/08 03:37:15;;;;;;;8.48;6.65;;;16.90;99.90;;;;;;6093168;23;20018;-64
2023/09/08 03:39:40;;;;;;;7.30;6.57;;;16.90;99.90;;;;;;6092392;23;20018;-64
2023/09/08 03:42:06;;;;;;;7.30;6.70;;;16.90;99.90;;;;;;6092512;23;20017;-64
2023/09/08 03:44:32;;;;;;;11.65;7.68;;;16.90;99.90;;;;;;6119537;23;20128;-64
2023/09/08 03:46:57;;;;;;;8.40;7.65;;;16.90;99.90;;;;;;6118885;23;20333;-64
2023/09/08 03:49:23;;;;;;;8.88;7.00;;;16.90;99.90;;;;;;6091466;23;20018;-64
2023/09/08 03:51:48;;;;;;;8.45;6.72;;;16.90;99.90;;;;;;6117721;23;20056;-64
2023/09/08 03:54:14;;;;;;;7.97;7.28;;;16.90;99.90;;;;;;6092519;23;20349;-64
2023/09/08 03:56:39;;;;;;;10.60;8.02;;;16.90;99.90;;;;;;6091686;23;20507;-64
2023/09/08 03:59:05;;;;;;;9.30;7.80;;;16.80;99.90;;;;;;6117916;23;20375;-64
2023/09/08 04:01:31;;;;;;;9.27;7.82;;;16.80;99.90;;;;;;6092442;23;20025;-64
2023/09/08 04:03:56;;;;;;;8.50;7.80;;;16.80;99.90;;;;;;6117353;23;20345;-64
2023/09/08 04:06:22;;;;;;;11.02;7.50;;;16.70;99.90;;;;;;6092190;23;20018;-64
2023/09/08 04:08:48;;;;;;;8.32;7.53;;;16.70;99.90;;;;;;6092230;23;20049;-64
2023/09/08 04:11:13;;;;;;;7.90;7.05;;;16.70;99.90;;;;;;6117835;23;20014;-64
2023/09/08 04:13:39;;;;;;;7.88;6.95;;;16.60;99.90;;;;;;6091713;23;20046;-64
2023/09/08 04:16:04;;;;;;;9.40;7.32;;;16.60;99.90;;;;;;6090037;23;20021;-64
2023/09/08 04:18:31;;;;;;;8.38;7.70;;;16.60;99.90;;;;;;6089791;23;20041;-64
2023/09/08 04:20:56;;;;;;;8.88;8.07;;;16.60;99.90;;;;;;6117547;23;20025;-64
2023/09/08 04:23:22;;;;;;;7.95;7.18;;;16.60;99.90;;;;;;6092933;23;20508;-64
2023/09/08 04:25:47;;;;;;;8.27;7.43;;;16.60;99.90;;;;;;6117827;23;20029;-64
2023/09/08 04:28:13;;;;;;;12.95;8.77;;;16.50;99.90;;;;;;6117102;23;20020;-64
2023/09/08 04:30:39;;;;;;;8.40;6.70;;;16.50;99.90;;;;;;6115049;23;20140;-64
2023/09/08 04:33:04;;;;;;;7.72;7.03;;;16.50;99.90;;;;;;6117926;23;20014;-64
2023/09/08 04:35:30;;;;;;;9.90;7.13;;;16.50;99.90;;;;;;6117761;23;20018;-64
2023/09/08 04:37:59;;;;;;;8.98;8.18;;;16.50;99.90;;;;;;6090349;23;20093;-64
2023/09/08 04:40:24;;;;;;;10.45;8.07;;;16.40;99.90;;;;;;6091615;23;20014;-64
2023/09/08 04:42:50;;;;;;;8.48;7.78;;;16.40;99.90;;;;;;6092782;23;20018;-64
2023/09/08 04:45:15;;;;;;;11.77;8.18;;;16.40;99.90;;;;;;6118491;23;20022;-64
2023/09/08 04:47:41;;;;;;;9.57;7.07;;;16.40;99.90;;;;;;6117449;23;20014;-64
2023/09/08 04:50:07;;;;;;;9.05;7.90;;;16.40;99.90;;;;;;6091443;23;20049;-64
2023/09/08 04:52:33;;;;;;;8.05;7.35;;;16.40;99.90;;;;;;6118103;23;20017;-64
2023/09/08 04:54:58;;;;;;;9.43;8.63;;;16.40;99.90;;;;;;6092972;23;20117;-64
2023/09/08 04:57:24;;;;;;;9.07;8.13;;;16.30;99.90;;;;;;6119611;23;20514;-64
2023/09/08 04:59:50;;;;;;;9.15;8.07;;;16.30;99.90;;;;;;6118703;23;20392;-64
2023/09/08 05:02:15;;;;;;;10.13;8.45;;;16.30;99.90;;;;;;6119735;23;20042;-64
2023/09/08 05:04:41;;;;;;;9.68;8.48;;;16.30;99.90;;;;;;6094149;23;20014;-64
2023/09/08 05:07:06;;;;;;;9.70;8.02;;;16.30;99.90;;;;;;6119506;23;20040;-64
2023/09/08 05:09:33;;;;;;;8.57;7.78;;;16.30;99.90;;;;;;6093041;23;20014;-64
2023/09/08 05:12:00;;;;;;;9.77;7.90;;;16.30;99.90;;;;;;6120010;23;20036;-64
2023/09/08 05:14:25;;;;;;;10.70;8.20;;;16.30;99.90;;;;;;6094265;23;20014;-64
2023/09/08 05:16:55;;;;;;;8.57;7.78;;;16.30;99.90;;;;;;6118192;23;20025;-64
2023/09/08 05:19:21;;;;;;;9.15;7.68;;;16.30;99.90;;;;;;6092911;23;20611;-64
2023/09/08 05:21:46;;;;;;;11.65;7.45;;;16.30;99.90;;;;;;6117779;23;20042;-64
2023/09/08 06:09:26;;;;;;;6.43;5.82;;;25.40;99.90;;;;;;6117931;23;20313;-64
2023/09/08 06:11:52;;;;;;;6.88;5.72;;;27.10;99.90;;;;;;6090743;23;20022;-64
2023/09/08 06:14:17;;;;;;;8.98;6.32;;;28.00;99.90;;;;;;6090557;23;20379;-64
2023/09/08 06:16:43;;;;;;;6.85;5.57;;;29.10;99.90;;;;;;6089950;23;20018;-65
2023/09/08 06:19:08;;;;;;;6.80;5.80;;;29.70;99.50;;;;;;6090767;23;20048;-65
2023/09/08 06:21:34;;;;;;;6.00;5.50;;;30.50;98.40;;;;;;6116666;23;20063;-65
2023/09/08 06:24:00;;;;;;;5.75;5.25;;;31.20;97.30;;;;;;6117348;23;20042;-65
2023/09/08 06:26:25;;;;;;;5.63;5.03;;;31.50;96.20;;;;;;6090465;23;20460;-65
2023/09/08 06:28:51;;;;;;;8.07;5.03;;;32.20;95.20;;;;;;6090144;23;20490;-64
2023/09/08 06:31:17;;;;;;;4.88;4.38;;;32.70;94.30;;;;;;6114190;23;20018;-64
2023/09/08 06:33:42;;;;;;;7.13;5.38;;;33.10;93.70;;;;;;6090183;23;20029;-65
2023/09/08 06:36:08;;;;;;;5.53;4.80;;;33.50;92.70;;;;;;6087967;23;20021;-64
2023/09/08 06:38:33;;;;;;;6.82;5.00;;;34.10;92.70;;;;;;6114470;23;20018;-64
2023/09/08 06:41:00;;;;;;;7.43;5.78;;;34.40;91.80;;;;;;6115734;23;20018;-64
2023/09/08 06:43:26;;;;;;;7.05;5.18;;;34.50;90.70;;;;;;6115339;23;20440;-64
2023/09/08 06:45:51;;;;;;;6.25;4.60;;;34.60;90.40;;;;;;6091518;23;20079;-64
2023/09/08 06:48:17;;;;;;;6.72;4.80;;;34.10;90.00;;;;;;6116105;23;20072;-64
2023/09/08 06:50:43;;;;;;;8.95;5.03;;;33.00;90.00;;;;;;6086785;23;20076;-64
2023/09/08 06:53:08;;;;;;;5.95;5.20;;;32.00;90.50;;;;;;6115980;23;20022;-64
2023/09/08 06:55:34;;;;;;;5.47;4.88;;;31.00;91.10;;;;;;6116793;23;20024;-63
2023/09/08 06:58:00;;;;;;;7.60;5.75;;;30.30;91.80;;;;;;6086256;23;20018;-64
2023/09/08 07:00:25;;;;;;;8.20;5.95;;;29.60;92.20;;;;;;6090355;23;20063;-64
2023/09/08 07:02:51;;;;;;;7.00;5.22;;;29.00;92.70;;;;;;6090073;23;20128;-64
2023/09/08 07:05:17;;;;;;;11.40;6.45;;;28.40;93.10;;;;;;6118466;23;20022;-64
2023/09/08 07:07:43;;;;;;;9.77;5.65;;;27.90;93.60;;;;;;6115285;23;20022;-64
2023/09/08 07:10:09;;;;;;;8.82;5.35;;;27.40;94.20;;;;;;6114856;23;20014;-64
2023/09/08 07:12:35;;;;;;;9.00;5.53;;;26.90;94.60;;;;;;6116444;23;20657;-64
2023/09/08 07:15:00;;;;;;;6.40;5.70;;;26.40;95.00;;;;;;6090577;23;20014;-64
2023/09/08 07:17:26;;;;;;;7.00;5.95;;;25.90;95.80;;;;;;6115636;23;20021;-64
2023/09/08 07:19:52;;;;;;;8.95;5.00;;;25.50;96.30;;;;;;6090183;23;20010;-64
2023/09/08 07:22:18;;;;;;;7.00;5.68;;;25.20;97.00;;;;;;6116051;23;20383;-64
2023/09/08 07:24:44;;;;;;;6.68;6.07;;;24.90;97.70;;;;;;6116915;23;20021;-64
2023/09/08 07:27:13;;;;;;;6.55;5.93;;;24.60;98.10;;;;;;6089906;23;20030;-64
2023/09/08 07:29:39;;;;;;;9.23;5.80;;;24.50;98.70;;;;;;6089168;23;20110;-64
2023/09/08 07:32:05;;;;;;;5.80;5.18;;;24.40;99.10;;;;;;6115773;23;20013;-64
2023/09/08 07:34:30;;;;;;;9.10;6.18;;;24.10;99.80;;;;;;6090904;23;20846;-64
2023/09/08 07:36:56;;;;;;;6.25;5.55;;;23.90;99.90;;;;;;6115917;23;20457;-64
2023/09/08 07:39:21;;;;;;;5.95;5.45;;;23.80;99.90;;;;;;6115038;23;20342;-64
2023/09/08 07:41:47;;;;;;;6.70;5.78;;;23.70;99.90;;;;;;6089346;23;20356;-64
2023/09/08 07:44:13;;;;;;;6.05;5.50;;;23.60;99.90;;;;;;6116192;23;20586;-64
2023/09/08 07:46:39;;;;;;;10.25;6.78;;;23.60;99.90;;;;;;6114984;23;20021;-64
2023/09/08 07:49:04;;;;;;;11.40;5.40;;;23.60;99.90;;;;;;6088728;23;20360;-64
2023/09/08 07:51:30;;;;;;;6.25;5.28;;;23.60;99.90;;;;;;6113852;23;20459;-64
2023/09/08 07:53:56;;;;;;;9.13;5.75;;;23.50;99.90;;;;;;6088651;23;20021;-64
2023/09/08 07:56:22;;;;;;;6.60;5.00;;;23.40;99.90;;;;;;6114166;23;20021;-64
2023/09/08 07:58:47;;;;;;;9.82;5.07;;;23.40;99.90;;;;;;6085720;23;20709;-64
2023/09/08 08:01:14;;;;;;;5.47;4.97;;;23.40;99.90;;;;;;6113012;23;20043;-64
2023/09/08 08:03:39;;;;;;;10.63;5.15;;;23.40;99.90;;;;;;6113513;23;20014;-64
2023/09/08 08:06:05;;;;;;;7.03;4.88;;;23.40;99.90;;;;;;6087645;23;20029;-64
2023/09/08 08:08:31;;;;;;;6.63;4.75;;;23.40;99.90;;;;;;6085942;23;20786;-64
2023/09/08 08:10:57;;;;;;;5.35;4.85;;;23.50;99.90;;;;;;6113093;23;20029;-64
2023/09/08 08:13:23;;;;;;;7.18;5.30;;;23.60;99.90;;;;;;6116359;23;20018;-64
2023/09/08 08:15:49;;;;;;;5.13;4.63;;;23.80;99.90;;;;;;6088845;23;20332;-64
2023/09/08 08:18:15;;;;;;;6.55;4.72;;;23.90;99.90;;;;;;6113896;23;20050;-64
2023/09/08 08:20:40;;;;;;;6.88;4.22;;;24.10;99.90;;;;;;6088779;23;20447;-64
2023/09/08 08:23:07;;;;;;;8.20;4.43;;;24.40;99.90;;;;;;6088589;23;20010;-64
2023/09/08 08:25:33;;;;;;;9.93;5.32;;;24.60;99.90;;;;;;6089811;23;20048;-64
2023/09/08 08:28:00;;;;;;;10.57;4.63;;;24.90;99.90;;;;;;6113501;23;20018;-64
2023/09/08 08:30:27;;;;;;;5.43;4.38;;;25.20;99.90;;;;;;6088522;23;20022;-64
2023/09/08 08:32:53;;;;;;;7.30;5.63;;;25.40;99.90;;;;;;6113581;23;20014;-64
2023/09/08 08:35:19;;;;;;;5.80;4.30;;;25.50;99.90;;;;;;6115475;23;20517;-64
2023/09/08 08:37:45;;;;;;;7.35;4.38;;;25.80;99.90;;;;;;6114277;23;20049;-65
2023/09/08 08:40:12;;;;;;;5.45;4.63;;;26.10;99.90;;;;;;6114273;23;20479;-64
2023/09/08 08:42:38;;;;;;;6.82;4.60;;;26.30;99.90;;;;;;6115019;23;20487;-64
2023/09/08 08:45:05;;;;;;;4.90;4.28;;;26.50;99.60;;;;;;6114682;23;20010;-64
2023/09/08 08:47:31;;;;;;;5.57;4.53;;;26.80;99.30;;;;;;6116422;23;20379;-64
2023/09/08 08:49:58;;;;;;;6.82;4.70;;;27.00;99.10;;;;;;6091336;23;20014;-64
2023/09/08 08:52:25;;;;;;;8.82;4.78;;;27.20;99.10;;;;;;6087300;23;20052;-64
2023/09/08 08:54:51;;;;;;;10.05;4.80;;;27.40;98.70;;;;;;6089966;23;20456;-64
2023/09/08 08:57:17;;;;;;;7.13;4.30;;;27.50;98.00;;;;;;6115806;23;20044;-64
2023/09/08 08:59:43;;;;;;;12.70;5.00;;;27.70;98.00;;;;;;6090352;23;20018;-64
2023/09/08 09:02:11;;;;;;;4.85;4.35;;;27.80;97.90;;;;;;6089970;23;20021;-64
2023/09/08 09:04:55;;;;;;;8.50;5.07;;;27.90;97.80;;;;;;6091159;23;20121;-64
2023/09/08 09:07:21;;;;;;;5.35;4.57;;;28.10;97.70;;;;;;6114886;23;20014;-64
2023/09/08 09:09:47;;;;;;;13.55;4.45;;;28.30;97.60;;;;;;6088961;23;20361;-64
2023/09/08 09:12:12;;;;;;;8.77;4.57;;;28.40;97.40;;;;;;6090077;23;20471;-64
2023/09/08 09:14:44;;;;;;;4.40;4.00;;;28.40;96.90;;;;;;6116412;23;20079;-64
2023/09/08 09:17:10;;;;;;;9.98;4.65;;;28.60;96.90;;;;;;6116336;23;20040;-64
2023/09/08 09:19:37;;;;;;;7.25;4.00;;;28.70;96.90;;;;;;6113473;23;20067;-64
2023/09/08 09:22:03;;;;;;;6.53;3.88;;;28.80;96.50;;;;;;6088224;23;20101;-65
2023/09/08 09:24:38;;;;;;;9.77;3.85;;;28.90;95.90;;;;;;6089300;23;20050;-65
2023/09/08 09:27:05;;;;;;;8.05;3.97;;;28.80;95.40;;;;;;6090107;23;20028;-65
2023/09/08 09:29:31;;;;;;;5.72;3.75;;;28.80;95.30;;;;;;6114630;23;20025;-65
2023/09/08 09:32:05;;;;;;;6.80;4.05;;;29.00;95.30;;;;;;6114401;23;20100;-64
2023/09/08 09:34:31;;;;;;;5.35;3.58;;;29.00;95.50;;;;;;6114718;23;20059;-64
2023/09/08 09:36:57;;;;;;;7.10;4.32;;;29.20;95.50;;;;;;6087463;23;20460;-65
2023/09/08 09:39:24;;;;;;;6.93;3.60;;;29.20;95.20;;;;;;6112660;23;20014;-65
2023/09/08 09:41:57;;;;;;;6.32;3.92;;;29.30;95.00;;;;;;6114133;23;20025;-65
2023/09/08 09:44:23;;;;;;;5.53;4.00;;;29.40;95.50;;;;;;6065512;23;20025;-65
2023/09/08 09:46:52;;;;;;;4.72;4.18;;;29.50;95.40;;;;;;6114003;23;20129;-64
2023/09/08 09:49:18;;;;;;;11.45;4.13;;;29.60;95.50;;;;;;6087098;23;20028;-64
2023/09/08 09:51:48;;;;;;;4.85;3.88;;;29.70;95.60;;;;;;6111517;23;20475;-64
2023/09/08 09:54:14;;;;;;;4.68;4.20;;;29.60;95.10;;;;;;6088820;23;20018;-64
2023/09/08 09:56:41;;;;;;;6.13;4.22;;;29.80;95.20;;;;;;6113740;23;20321;-64
2023/09/08 09:59:12;;;;;;;7.82;4.18;;;29.80;95.10;;;;;;6113750;23;20014;-64
2023/09/08 10:01:39;;;;;;;5.45;3.80;;;29.80;95.00;;;;;;6113439;23;20072;-65
2023/09/08 10:04:06;;;;;;;5.07;3.70;;;29.80;95.10;;;;;;6114277;23;20449;-64
2023/09/08 10:06:37;;;;;;;6.18;4.22;;;29.90;95.50;;;;;;6110840;23;20025;-64
2023/09/08 10:09:04;;;;;;;6.55;3.70;;;30.00;95.00;;;;;;6112495;23;20412;-64
2023/09/08 10:11:44;;;;;;;4.47;3.38;;;30.10;94.50;;;;;;6087190;23;20017;-64
2023/09/08 10:14:11;;;;;;;4.35;3.60;;;30.00;94.20;;;;;;6111725;23;20029;-64
2023/09/08 10:16:40;;;;;;;8.38;3.55;;;30.00;93.90;;;;;;6115032;23;20014;-64
2023/09/08 10:19:09;;;;;;;4.50;3.78;;;30.10;93.90;;;;;;6089758;23;20017;-64
2023/09/08 10:21:40;;;;;;;4.15;3.85;;;30.20;94.40;;;;;;6112769;23;20466;-64
2023/09/08 10:24:22;;;;;;;4.13;3.17;;;30.10;94.00;;;;;;6085557;23;20010;-64
2023/09/08 10:27:04;;;;;;;5.47;3.28;;;30.20;94.20;;;;;;6086188;23;20423;-64
2023/09/08 10:29:31;;;;;;;5.60;3.00;;;30.30;93.90;;;;;;6086566;23;20048;-63
2023/09/08 10:31:58;;;;;;;4.22;3.03;;;30.30;94.20;;;;;;6113184;23;20096;-64
2023/09/08 10:34:25;;;;;;;3.53;3.22;;;30.40;93.70;;;;;;6087093;23;20022;-64
2023/09/08 10:36:51;;;;;;;4.07;3.15;;;30.50;93.50;;;;;;6090394;23;20491;-63
2023/09/08 10:39:39;;;;;;;4.65;3.10;;;30.60;93.70;;;;;;6115709;23;20093;-64
2023/09/08 10:42:18;;;;;;;6.07;3.78;;;30.70;94.20;;;;;;6115813;23;20014;-64
2023/09/08 10:44:44;;;;;;;5.68;3.55;;;30.70;94.00;;;;;;6086477;23;20024;-64
2023/09/08 10:47:10;;;;;;;6.80;3.40;;;30.70;94.00;;;;;;6113728;23;20014;-64
2023/09/08 10:49:36;;;;;;;4.68;3.67;;;30.60;93.70;;;;;;6115828;23;20387;-64
2023/09/08 10:52:10;;;;;;;9.07;3.22;;;30.70;94.20;;;;;;6087115;23;20022;-64
2023/09/08 10:54:43;;;;;;;6.83;2.87;;;30.80;93.60;;;;;;6115217;23;20018;-64
2023/09/08 10:57:16;;;;;;;3.55;3.25;;;30.90;93.30;;;;;;6084832;23;20030;-63
2023/09/08 10:59:51;;;;;;;4.47;3.25;;;30.90;93.10;;;;;;6115788;23;20072;-64
2023/09/08 11:02:41;;;;;;;5.68;3.72;;;30.90;93.10;;;;;;6089699;23;20022;-64
2023/09/08 11:05:15;;;;;;;4.60;3.30;;;30.90;93.40;;;;;;6090332;23;20021;-64
2023/09/08 11:07:42;;;;;;;4.05;3.10;;;30.90;92.70;;;;;;6116957;23;20121;-64
2023/09/08 11:10:09;;;;;;;3.92;3.20;;;31.00;92.70;;;;;;6088127;23;20403;-64
2023/09/08 11:12:35;;;;;;;3.35;2.92;;;31.00;93.00;;;;;;6113847;23;20318;-67
2023/09/08 11:15:05;;;;;;;4.22;2.97;;;30.90;92.00;;;;;;6086970;23;20448;-64
2023/09/08 11:17:34;;;;;;;3.92;3.10;;;30.80;91.90;;;;;;6088632;23;20018;-64
2023/09/08 11:20:07;;;;;;;3.75;2.85;;;30.90;91.70;;;;;;6114764;23;20064;-64
2023/09/08 11:22:34;;;;;;;3.78;3.08;;;31.10;92.10;;;;;;6089118;23;20018;-64
2023/09/08 11:25:04;;;;;;;3.33;3.03;;;31.20;91.80;;;;;;6115791;23;20092;-64
2023/09/08 11:27:30;;;;;;;6.00;2.90;;;31.30;92.00;;;;;;6115011;23;20021;-64
2023/09/08 11:29:56;;;;;;;4.95;2.92;;;31.10;91.60;;;;;;6117363;23;20018;-64
2023/09/08 11:32:22;;;;;;;3.60;2.58;;;31.30;91.80;;;;;;6091254;23;20018;-64
2023/09/08 11:34:48;;;;;;;3.08;2.75;;;31.30;91.30;;;;;;6117241;23;20033;-64
2023/09/08 11:37:17;;;;;;;9.35;3.22;;;31.10;90.90;;;;;;6117825;23;20018;-64
2023/09/08 11:39:46;;;;;;;7.32;3.17;;;31.20;91.40;;;;;;6091306;23;20025;-64
2023/09/08 11:42:14;;;;;;;5.75;2.95;;;31.30;90.90;;;;;;6116854;23;20013;-64
2023/09/08 11:44:41;;;;;;;4.43;2.20;;;31.30;90.50;;;;;;6116430;23;20452;-64
2023/09/08 11:47:09;;;;;;;6.80;3.10;;;31.40;90.90;;;;;;6117395;23;20056;-64
2023/09/08 11:49:36;;;;;;;4.65;2.80;;;31.60;90.60;;;;;;6117148;23;20021;-64
2023/09/08 11:52:04;;;;;;;4.15;2.92;;;31.70;90.60;;;;;;6090753;23;20074;-64
2023/09/08 11:54:32;;;;;;;4.65;3.42;;;31.70;90.70;;;;;;6113611;23;20022;-64
2023/09/08 11:57:00;;;;;;;5.65;3.42;;;31.60;90.00;;;;;;6089209;23;20029;-64
2023/09/08 11:59:30;;;;;;;5.32;2.45;;;31.60;89.90;;;;;;6115459;23;20048;-64
2023/09/08 12:01:56;;;;;;;8.02;3.22;;;31.60;90.00;;;;;;6086500;23;20010;-64
2023/09/08 12:04:22;;;;;;;6.93;2.75;;;31.60;90.00;;;;;;6114615;23;20022;-64
2023/09/08 12:06:49;;;;;;;4.80;2.85;;;31.70;89.20;;;;;;6088769;23;20026;-64
2023/09/08 12:09:16;;;;;;;7.03;3.05;;;31.70;89.30;;;;;;6115139;23;20025;-64
2023/09/08 12:11:42;;;;;;;4.53;2.55;;;31.70;90.00;;;;;;6088501;23;20436;-64
2023/09/08 12:14:12;;;;;;;12.30;2.67;;;31.80;89.10;;;;;;6088645;23;20080;-64
2023/09/08 12:16:39;;;;;;;3.63;2.67;;;31.60;89.40;;;;;;6087558;23;20101;-64
2023/09/08 12:19:04;;;;;;;4.40;2.67;;;31.60;88.60;;;;;;6089349;23;20018;-64
2023/09/08 12:21:32;;;;;;;7.82;3.17;;;31.70;88.40;;;;;;6089476;23;20063;-64
2023/09/08 12:23:58;;;;;;;3.83;2.90;;;31.70;88.50;;;;;;6090237;23;20139;-64
2023/09/08 12:26:27;;;;;;;3.90;2.45;;;31.70;88.70;;;;;;6116372;23;20029;-64
2023/09/08 12:28:52;;;;;;;7.60;3.00;;;31.70;87.60;;;;;;6115663;23;20014;-64
2023/09/08 12:31:18;;;;;;;5.20;2.88;;;31.60;86.50;;;;;;6116042;23;20018;-64
2023/09/08 12:33:44;;;;;;;6.78;2.72;;;31.50;87.00;;;;;;6115726;23;20103;-64
2023/09/08 12:36:14;;;;;;;9.73;3.28;;;31.60;87.20;;;;;;6115860;23;20466;-64
2023/09/08 12:38:40;;;;;;;5.53;2.63;;;31.70;88.10;;;;;;6090133;23;20015;-64
2023/09/08 12:41:06;;;;;;;6.68;2.65;;;31.60;87.80;;;;;;6115049;23;20396;-64
2023/09/08 12:43:32;;;;;;;2.92;2.72;;;31.60;88.80;;;;;;6066025;23;20021;-64
2023/09/08 12:45:57;;;;;;;4.15;2.65;;;31.60;87.20;;;;;;6115777;23;20018;-64
2023/09/08 12:48:23;;;;;;;3.58;2.95;;;31.60;86.50;;;;;;6089854;23;20029;-64
2023/09/08 12:50:49;;;;;;;3.55;2.78;;;31.60;86.70;;;;;;6090374;23;20361;-64
2023/09/08 12:53:16;;;;;;;8.18;3.33;;;31.50;86.20;;;;;;6088106;23;20525;-64
2023/09/08 12:55:42;;;;;;;6.35;2.55;;;31.60;87.00;;;;;;6088186;23;20042;-64
2023/09/08 12:58:08;;;;;;;3.55;2.35;;;31.70;87.60;;;;;;6087924;23;20479;-64
2023/09/08 13:00:33;;;;;;;5.90;2.95;;;31.70;87.60;;;;;;6090030;23;20443;-64
2023/09/08 13:02:59;;;;;;;4.45;2.90;;;31.70;87.00;;;;;;6114739;23;20017;-64
2023/09/08 13:05:24;;;;;;;7.30;2.90;;;31.70;86.90;;;;;;6112858;23;20088;-64
2023/09/08 13:07:50;;;;;;;6.28;3.35;;;31.60;86.40;;;;;;6114367;23;20010;-64
2023/09/08 13:10:15;;;;;;;6.88;2.40;;;31.60;86.20;;;;;;6113988;23;20034;-64
2023/09/08 13:12:41;;;;;;;3.35;2.40;;;31.70;85.50;;;;;;6064076;23;20027;-64
2023/09/08 13:15:10;;;;;;;6.63;2.75;;;31.60;85.50;;;;;;6090353;23;20333;-64
2023/09/08 13:17:35;;;;;;;5.90;3.08;;;31.40;85.70;;;;;;6089509;23;20021;-64
2023/09/08 13:20:02;;;;;;;2.85;2.55;;;31.40;86.20;;;;;;6116372;23;20018;-64
2023/09/08 13:22:28;;;;;;;9.25;2.60;;;31.40;86.40;;;;;;6066831;23;20032;-64
2023/09/08 13:24:54;;;;;;;4.20;2.20;;;31.50;86.20;;;;;;6116035;23;20321;-65
2023/09/08 13:27:20;;;;;;;3.85;2.95;;;31.30;85.60;;;;;;6090760;23;20463;-64
2023/09/08 13:29:46;;;;;;;4.78;2.70;;;31.40;85.30;;;;;;6090871;23;20010;-64